Time;durP1;ratioP1;P1;durP2;ratioP2;P2;SDS_P1;SDS_P2;PMS_P1;PMS_P2;Temp;Humidity;BMP_temperature;BMP_pressure;BME280_temperature;BME280_humidity;BME280_pressure;Samples;Min_cycle;Max_cycle;Signal;HPM_P1;HPM_P2
2022/04/17 00:01:30;;;;;;;3.33;2.22;;;230.60;1305.60;;;;;;4843214;29;20026;-62
2022/04/17 00:03:56;;;;;;;5.40;2.33;;;230.70;1331.20;;;;;;4842953;29;20030;-63
2022/04/17 00:06:21;;;;;;;3.72;2.33;;;230.60;1331.20;;;;;;4843243;29;20036;-63
2022/04/17 00:08:48;;;;;;;4.93;2.60;;;230.50;1331.20;;;;;;4842981;29;20070;-62
2022/04/17 00:11:15;;;;;;;6.85;3.10;;;230.60;1356.80;;;;;;4842897;29;20380;-63
2022/04/17 00:13:40;;;;;;;4.22;2.58;;;230.40;1356.80;;;;;;4842808;29;20041;-62
2022/04/17 00:16:06;;;;;;;4.82;2.63;;;230.40;1356.80;;;;;;4842936;29;20517;-62
2022/04/17 00:18:32;;;;;;;3.63;2.45;;;230.50;1356.80;;;;;;4842968;29;20381;-62
2022/04/17 00:20:58;;;;;;;3.95;2.70;;;230.50;1382.40;;;;;;4842903;29;20026;-62
2022/04/17 00:23:24;;;;;;;5.07;2.80;;;230.50;1382.40;;;;;;4843395;29;20048;-63
2022/04/17 00:25:50;;;;;;;6.70;2.80;;;230.50;1356.80;;;;;;4842517;29;20030;-62
2022/04/17 00:28:15;;;;;;;7.90;2.65;;;230.40;1382.40;;;;;;4842795;29;20033;-63
2022/04/17 00:30:41;;;;;;;3.10;2.40;;;230.40;1382.40;;;;;;4844870;29;20393;-62
2022/04/17 00:33:07;;;;;;;3.33;2.58;;;230.40;1356.80;;;;;;4846328;29;20150;-63
2022/04/17 00:35:34;;;;;;;4.47;3.10;;;205.70;1382.40;;;;;;4844542;29;20133;-63
2022/04/17 00:38:00;;;;;;;5.72;2.78;;;205.60;1382.40;;;;;;4846110;29;20121;-62
2022/04/17 00:40:25;;;;;;;3.17;2.50;;;205.60;1382.40;;;;;;4846210;29;20094;-62
2022/04/17 00:42:53;;;;;;;9.95;2.97;;;205.70;1382.40;;;;;;4845439;29;20587;-63
2022/04/17 00:45:19;;;;;;;5.07;3.08;;;205.70;1382.40;;;;;;4846174;29;20044;-62
2022/04/17 00:47:44;;;;;;;7.80;2.75;;;205.60;1382.40;;;;;;4845827;29;20034;-62
2022/04/17 00:50:11;;;;;;;6.38;2.90;;;205.70;1382.40;;;;;;4846092;29;20034;-62
2022/04/17 00:52:38;;;;;;;4.18;2.60;;;205.70;1382.40;;;;;;4845981;29;20091;-63
2022/04/17 00:55:07;;;;;;;3.05;2.47;;;205.60;1382.40;;;;;;4845648;29;20053;-62
2022/04/17 00:57:33;;;;;;;8.70;2.80;;;205.70;1408.00;;;;;;4845864;29;20033;-63
2022/04/17 00:59:59;;;;;;;5.60;2.80;;;205.70;1408.00;;;;;;4845701;29;20033;-63
2022/04/17 01:02:25;;;;;;;4.00;2.67;;;205.50;1382.40;;;;;;4846080;29;20105;-63
2022/04/17 01:04:51;;;;;;;2.75;2.25;;;205.60;1382.40;;;;;;4844471;29;20400;-63
2022/04/17 01:07:21;;;;;;;4.40;2.30;;;205.70;1408.00;;;;;;4845901;29;20064;-63
2022/04/17 01:09:46;;;;;;;6.78;3.00;;;205.70;1382.40;;;;;;4845741;29;20034;-62
2022/04/17 01:12:13;;;;;;;4.63;2.70;;;205.70;1408.00;;;;;;4845736;29;20037;-62
2022/04/17 01:14:40;;;;;;;3.50;2.45;;;205.70;1408.00;;;;;;4845359;29;20085;-63
2022/04/17 01:17:07;;;;;;;3.85;2.45;;;205.70;1382.40;;;;;;4845885;29;20071;-62
2022/04/17 01:19:37;;;;;;;8.55;3.35;;;205.70;1382.40;;;;;;4845310;29;20500;-62
2022/04/17 01:22:06;;;;;;;3.80;2.63;;;205.70;1382.40;;;;;;4845535;29;20018;-62
2022/04/17 01:27:19;;;;;;;3.17;2.20;;;205.50;1382.40;;;;;;4845306;29;20041;-62
2022/04/17 01:29:46;;;;;;;5.47;2.58;;;205.50;1382.40;;;;;;4845317;29;20033;-63
2022/04/17 01:32:13;;;;;;;2.85;2.33;;;205.50;1382.40;;;;;;4844925;29;20054;-62
2022/04/17 01:34:38;;;;;;;5.15;2.90;;;205.50;1382.40;;;;;;4844861;29;20040;-63
2022/04/17 01:37:05;;;;;;;10.13;3.20;;;205.60;1382.40;;;;;;4845223;29;20034;-62
2022/04/17 01:39:31;;;;;;;3.53;2.25;;;205.60;1382.40;;;;;;4845290;29;20037;-63
2022/04/17 01:41:58;;;;;;;6.90;3.80;;;205.60;1356.80;;;;;;4843686;29;20216;-62
2022/04/17 01:44:27;;;;;;;7.60;3.78;;;205.60;1356.80;;;;;;4845061;29;20113;-62
2022/04/17 01:46:53;;;;;;;7.07;2.30;;;205.50;1356.80;;;;;;4845001;29;20026;-62
2022/04/17 01:49:19;;;;;;;9.25;2.55;;;205.60;1356.80;;;;;;4845143;29;20026;-62
2022/04/17 01:51:47;;;;;;;3.80;2.20;;;205.60;1331.20;;;;;;4844992;29;20030;-63
2022/04/17 01:54:15;;;;;;;5.70;2.72;;;205.50;1356.80;;;;;;4845060;29;20042;-62
2022/04/17 01:56:42;;;;;;;7.07;3.10;;;205.60;1356.80;;;;;;4844984;29;20082;-63
2022/04/17 01:59:09;;;;;;;5.55;2.65;;;205.60;1382.40;;;;;;4845159;29;20109;-63
2022/04/17 02:01:35;;;;;;;4.30;3.13;;;205.50;1356.80;;;;;;4844586;29;20386;-63
2022/04/17 02:04:02;;;;;;;3.22;2.60;;;205.50;1356.80;;;;;;4844753;29;20366;-63
2022/04/17 02:06:28;;;;;;;5.47;2.45;;;205.50;1382.40;;;;;;4844529;29;20037;-63
2022/04/17 02:08:54;;;;;;;3.75;2.47;;;205.50;1356.80;;;;;;4844698;29;20030;-63
2022/04/17 02:11:21;;;;;;;3.70;2.13;;;205.40;1356.80;;;;;;4844495;29;20026;-63
2022/04/17 02:13:48;;;;;;;5.65;2.80;;;205.40;1356.80;;;;;;4844357;29;20124;-63
2022/04/17 02:16:17;;;;;;;3.13;2.10;;;205.30;1356.80;;;;;;4844619;29;20042;-63
2022/04/17 02:18:55;;;;;;;3.95;2.47;;;205.30;1356.80;;;;;;4844484;29;20109;-63
2022/04/17 02:21:21;;;;;;;9.27;2.58;;;205.30;1356.80;;;;;;4842705;29;20042;-63
2022/04/17 02:23:47;;;;;;;5.47;2.58;;;205.40;1356.80;;;;;;4844536;29;20073;-63
2022/04/17 02:26:16;;;;;;;3.20;2.20;;;205.40;1382.40;;;;;;4844015;29;20496;-62
2022/04/17 02:28:41;;;;;;;3.45;2.22;;;205.40;1356.80;;;;;;4844013;29;20124;-63
2022/04/17 02:31:09;;;;;;;4.75;2.50;;;205.40;1356.80;;;;;;4843697;29;20069;-63
2022/04/17 02:33:36;;;;;;;3.00;2.33;;;205.40;1356.80;;;;;;4844271;29;20046;-63
2022/04/17 02:36:02;;;;;;;3.50;2.60;;;205.30;1331.20;;;;;;4842932;29;20029;-63
2022/04/17 02:38:28;;;;;;;4.82;2.72;;;205.30;1331.20;;;;;;4844225;29;20074;-63
2022/04/17 02:40:54;;;;;;;2.33;2.08;;;205.20;1331.20;;;;;;4843922;29;20069;-63
2022/04/17 02:43:21;;;;;;;3.28;2.30;;;205.20;1356.80;;;;;;4844200;29;20029;-63
2022/04/17 02:45:47;;;;;;;3.88;2.20;;;205.20;1356.80;;;;;;4843902;29;20538;-63
2022/04/17 02:48:13;;;;;;;3.90;2.40;;;205.20;1356.80;;;;;;4843925;29;20086;-63
2022/04/17 02:50:39;;;;;;;2.92;1.90;;;205.20;1356.80;;;;;;4843599;29;20392;-63
2022/04/17 02:53:06;;;;;;;3.83;2.67;;;205.20;1356.80;;;;;;4843347;29;20030;-63
2022/04/17 02:55:31;;;;;;;3.60;2.60;;;205.20;1382.40;;;;;;4843647;29;20042;-63
2022/04/17 02:57:57;;;;;;;3.53;2.78;;;205.20;1356.80;;;;;;4843486;29;20034;-63
2022/04/17 03:00:31;;;;;;;3.13;2.60;;;205.20;1356.80;;;;;;4842195;29;20086;-63
2022/04/17 03:05:42;;;;;;;;;;;205.20;1356.80;;;;;;4844230;29;20052;-63
2022/04/17 03:08:16;;;;;;;4.65;2.95;;;205.10;1356.80;;;;;;4843563;29;19908;-63
2022/04/17 03:10:48;;;;;;;6.33;2.70;;;205.10;1382.40;;;;;;4843371;29;20053;-63
2022/04/17 03:13:15;;;;;;;3.38;2.42;;;205.10;1356.80;;;;;;4843708;29;20069;-63
2022/04/17 03:15:41;;;;;;;3.78;2.60;;;205.00;1356.80;;;;;;4843536;29;20029;-63
2022/04/17 03:18:08;;;;;;;3.30;2.47;;;205.00;1356.80;;;;;;4842821;29;20098;-63
2022/04/17 03:20:34;;;;;;;5.70;2.40;;;205.00;1382.40;;;;;;4843453;29;20037;-63
2022/04/17 03:23:00;;;;;;;3.75;2.63;;;204.90;1382.40;;;;;;4843528;29;20022;-63
2022/04/17 03:25:26;;;;;;;3.75;2.70;;;205.00;1382.40;;;;;;4843481;29;20026;-63
2022/04/17 03:27:53;;;;;;;4.32;2.28;;;204.90;1382.40;;;;;;4843279;29;20037;-63
2022/04/17 03:30:19;;;;;;;4.00;2.75;;;204.90;1382.40;;;;;;4843195;29;20042;-63
2022/04/17 03:32:49;;;;;;;4.57;2.40;;;204.90;1382.40;;;;;;4843115;29;20034;-63
2022/04/17 03:35:16;;;;;;;2.95;2.17;;;204.90;1382.40;;;;;;4843304;29;20062;-63
2022/04/17 03:37:42;;;;;;;4.40;2.42;;;204.90;1382.40;;;;;;4843322;29;20033;-63
2022/04/17 03:40:13;;;;;;;3.17;2.53;;;204.90;1356.80;;;;;;4842803;29;20385;-62
2022/04/17 03:42:39;;;;;;;4.25;2.55;;;204.80;1382.40;;;;;;4841913;29;20030;-63
2022/04/17 03:45:07;;;;;;;5.60;2.53;;;204.80;1356.80;;;;;;4841605;29;20117;-63
2022/04/17 03:47:34;;;;;;;4.03;2.58;;;204.90;1356.80;;;;;;4842303;29;20423;-63
2022/04/17 03:50:00;;;;;;;4.78;2.20;;;204.80;1382.40;;;;;;4842977;29;20030;-63
2022/04/17 03:52:26;;;;;;;3.75;2.40;;;204.80;1356.80;;;;;;4843203;29;20045;-63
2022/04/17 03:54:52;;;;;;;4.50;2.30;;;180.10;1356.80;;;;;;4843195;29;20030;-63
2022/04/17 03:57:17;;;;;;;4.25;2.65;;;180.10;1382.40;;;;;;4842990;29;20381;-63
2022/04/17 03:59:43;;;;;;;4.80;2.53;;;180.10;1356.80;;;;;;4843019;29;20038;-62
2022/04/17 04:02:09;;;;;;;4.05;2.67;;;180.10;1382.40;;;;;;4842850;29;20034;-63
2022/04/17 04:04:36;;;;;;;3.67;2.40;;;180.10;1382.40;;;;;;4843599;29;20434;-63
2022/04/17 04:07:02;;;;;;;5.55;3.50;;;180.00;1382.40;;;;;;4846711;29;20041;-62
2022/04/17 04:09:28;;;;;;;6.15;2.55;;;180.10;1382.40;;;;;;4846652;29;20480;-63
2022/04/17 04:11:53;;;;;;;4.00;2.55;;;180.10;1382.40;;;;;;4846139;29;20045;-63
2022/04/17 04:14:19;;;;;;;3.60;2.65;;;180.10;1382.40;;;;;;4846460;29;20053;-63
2022/04/17 04:16:45;;;;;;;11.95;6.40;;;204.80;1382.40;;;;;;4844974;29;20106;-63
2022/04/17 04:19:13;;;;;;;8.93;5.78;;;180.10;1382.40;;;;;;4846558;29;20376;-63
2022/04/17 04:21:48;;;;;;;7.20;4.57;;;204.80;1356.80;;;;;;4845406;29;20073;-63
2022/04/17 04:24:19;;;;;;;;;;;204.80;1382.40;;;;;;4846970;29;20477;-63
2022/04/17 04:28:32;;;;;;;4.32;2.60;;;204.80;1382.40;;;;;;4845977;29;19912;-63
2022/04/17 04:29:31;;;;;;;4.28;2.67;;;180.10;1382.40;;;;;;4846484;29;20074;-63
2022/04/17 04:31:57;;;;;;;3.53;2.80;;;204.80;1382.40;;;;;;4845797;29;20050;-63
2022/04/17 04:34:23;;;;;;;3.78;2.72;;;204.80;1382.40;;;;;;4846093;29;20038;-62
2022/04/17 04:36:49;;;;;;;4.45;3.20;;;204.80;1382.40;;;;;;4846219;29;20026;-63
2022/04/17 04:39:15;;;;;;;6.53;3.80;;;204.90;1382.40;;;;;;4844449;29;20080;-63
2022/04/17 04:41:40;;;;;;;8.82;4.35;;;204.90;1382.40;;;;;;4845115;29;20039;-63
2022/04/17 04:44:06;;;;;;;11.45;4.72;;;204.90;1382.40;;;;;;4846125;29;20037;-63
2022/04/17 04:46:32;;;;;;;8.68;4.32;;;204.90;1382.40;;;;;;4846074;29;20026;-63
2022/04/17 04:51:42;;;;;;;10.35;5.22;;;204.90;1382.40;;;;;;4846088;29;20388;-63
2022/04/17 04:54:08;;;;;;;11.50;5.20;;;204.90;1382.40;;;;;;4845688;29;20046;-63
2022/04/17 04:56:34;;;;;;;10.23;5.78;;;204.90;1408.00;;;;;;4845939;29;20028;-63
2022/04/17 04:59:00;;;;;;;13.65;5.63;;;204.90;1356.80;;;;;;4846066;29;20049;-63
2022/04/17 05:01:26;;;;;;;9.45;5.93;;;204.90;1382.40;;;;;;4845490;29;20358;-63
2022/04/17 05:03:51;;;;;;;12.63;7.18;;;205.00;1382.40;;;;;;4844133;29;20049;-63
2022/04/17 05:06:18;;;;;;;11.63;5.82;;;205.00;1382.40;;;;;;4845784;29;20427;-63
2022/04/17 05:08:43;;;;;;;11.98;6.45;;;205.00;1382.40;;;;;;4845822;29;20552;-63
2022/04/17 05:11:09;;;;;;;17.13;7.45;;;205.00;1382.40;;;;;;4844194;29;20034;-63
2022/04/17 05:13:35;;;;;;;23.63;9.25;;;205.00;1382.40;;;;;;4845100;29;20034;-63
2022/04/17 05:16:02;;;;;;;20.60;8.15;;;205.00;1382.40;;;;;;4845458;29;20366;-63
2022/04/17 05:18:28;;;;;;;26.60;10.77;;;205.00;1382.40;;;;;;4844214;29;20030;-63
2022/04/17 05:20:55;;;;;;;21.40;7.18;;;205.00;1356.80;;;;;;4845602;29;20041;-63
2022/04/17 05:23:29;;;;;;;25.02;10.48;;;205.00;1382.40;;;;;;4845533;29;20034;-63
2022/04/17 05:26:00;;;;;;;18.83;7.57;;;205.00;1382.40;;;;;;4845734;29;20117;-63
2022/04/17 05:28:28;;;;;;;12.25;5.78;;;205.10;1382.40;;;;;;4845322;29;20082;-63
2022/04/17 05:30:54;;;;;;;16.75;7.63;;;205.10;1356.80;;;;;;4845232;29;20517;-63
2022/04/17 05:33:21;;;;;;;11.68;5.18;;;205.00;1356.80;;;;;;4845353;29;20038;-63
2022/04/17 05:35:48;;;;;;;9.98;5.20;;;205.10;1382.40;;;;;;4845278;29;20030;-63
2022/04/17 05:38:15;;;;;;;20.33;7.80;;;205.10;1356.80;;;;;;4844079;29;20038;-63
2022/04/17 05:40:47;;;;;;;13.98;6.95;;;205.10;1356.80;;;;;;4845088;29;20117;-63
2022/04/17 05:43:14;;;;;;;11.27;6.60;;;205.10;1356.80;;;;;;4843824;29;20026;-63
2022/04/17 05:45:40;;;;;;;16.65;8.55;;;205.10;1331.20;;;;;;4844846;29;20055;-63
2022/04/17 05:48:09;;;;;;;15.77;7.57;;;205.10;1331.20;;;;;;4843069;29;20129;-63
2022/04/17 05:50:37;;;;;;;13.90;7.15;;;205.20;1356.80;;;;;;4844993;29;20038;-63
2022/04/17 05:53:03;;;;;;;13.95;6.72;;;205.20;1331.20;;;;;;4845039;29;20026;-63
2022/04/17 05:55:29;;;;;;;12.55;6.25;;;205.20;1356.80;;;;;;4844489;29;20377;-63
2022/04/17 05:57:55;;;;;;;12.25;6.72;;;205.20;1331.20;;;;;;4841778;29;20498;-63
2022/04/17 06:00:21;;;;;;;10.25;5.70;;;205.30;1331.20;;;;;;4841521;29;20065;-63
2022/04/17 06:02:48;;;;;;;14.63;6.53;;;205.30;1331.20;;;;;;4839336;29;20042;-62
2022/04/17 06:05:15;;;;;;;13.38;7.00;;;205.30;1331.20;;;;;;4834923;29;20034;-63
2022/04/17 06:07:41;;;;;;;14.85;8.55;;;205.40;1331.20;;;;;;4832649;29;20117;-63
2022/04/17 06:10:09;;;;;;;13.25;6.65;;;205.50;1331.20;;;;;;4833676;29;20048;-63
2022/04/17 06:12:35;;;;;;;10.77;6.10;;;205.50;1305.60;;;;;;4838274;29;20065;-63
2022/04/17 06:15:02;;;;;;;9.10;4.45;;;205.50;1305.60;;;;;;4843953;29;20492;-63
2022/04/17 06:17:34;;;;;;;11.18;4.80;;;205.60;1331.20;;;;;;4844620;29;20392;-63
2022/04/17 06:20:06;;;;;;;9.57;4.15;;;205.60;1305.60;;;;;;4844326;29;20033;-63
2022/04/17 06:22:36;;;;;;;7.78;6.25;;;205.60;1305.60;;;;;;4844386;29;20029;-63
2022/04/17 06:25:07;;;;;;;11.77;5.05;;;205.70;1331.20;;;;;;4834929;29;20030;-62
2022/04/17 06:27:46;;;;;;;12.38;7.22;;;205.70;1305.60;;;;;;4829827;29;20022;-63
2022/04/17 06:30:17;;;;;;;7.03;4.53;;;230.40;1305.60;;;;;;4828768;29;20049;-63
2022/04/17 06:32:44;;;;;;;12.40;3.80;;;230.40;1305.60;;;;;;4853177;29;20085;-62
2022/04/17 06:35:11;;;;;;;8.18;5.00;;;230.50;1280.00;;;;;;4862512;29;20113;-63
2022/04/17 06:37:59;;;;;;;6.18;3.90;;;230.60;1280.00;;;;;;4862844;29;20025;-63
2022/04/17 06:40:28;;;;;;;7.05;4.00;;;230.60;1280.00;;;;;;4862530;29;20086;-63
2022/04/17 06:42:56;;;;;;;6.90;3.20;;;230.70;1254.40;;;;;;4862811;29;20137;-63
2022/04/17 06:45:23;;;;;;;15.43;4.10;;;230.80;1254.40;;;;;;4862576;29;20064;-63
2022/04/17 06:47:49;;;;;;;5.70;3.50;;;230.90;1254.40;;;;;;4861847;29;20089;-63
2022/04/17 06:50:17;;;;;;;11.20;4.30;;;230.90;1228.80;;;;;;4862491;29;20033;-62
2022/04/17 06:52:42;;;;;;;5.75;3.65;;;231.00;1203.20;;;;;;4862406;29;20051;-63
2022/04/17 06:55:11;;;;;;;7.55;3.90;;;231.00;1228.80;;;;;;4862136;29;20579;-62
2022/04/17 06:57:39;;;;;;;7.32;3.40;;;231.10;1203.20;;;;;;4862070;29;20465;-62
2022/04/17 07:00:10;;;;;;;15.10;3.90;;;231.20;1228.80;;;;;;4862042;29;20128;-63
2022/04/17 07:02:40;;;;;;;9.32;3.25;;;231.30;1203.20;;;;;;4861574;29;20036;-63
2022/04/17 07:05:07;;;;;;;7.65;3.03;;;256.10;1203.20;;;;;;4861916;29;20116;-62
2022/04/17 07:07:33;;;;;;;11.02;2.85;;;256.10;1177.60;;;;;;4862267;29;20097;-62
2022/04/17 07:09:59;;;;;;;13.68;3.13;;;256.20;1177.60;;;;;;4858591;29;20138;-62
2022/04/17 07:12:24;;;;;;;6.85;3.40;;;256.40;1152.00;;;;;;4846876;29;20518;-63
2022/04/17 07:14:50;;;;;;;9.50;3.25;;;256.40;1152.00;;;;;;4843320;29;20077;-63
2022/04/17 07:17:17;;;;;;;4.43;3.15;;;256.60;1152.00;;;;;;4848685;29;20022;-63
2022/04/17 07:19:43;;;;;;;10.63;3.35;;;256.70;1126.40;;;;;;4852374;29;20029;-63
2022/04/17 07:22:11;;;;;;;7.53;3.33;;;256.90;1126.40;;;;;;4842928;29;20026;-62
2022/04/17 07:24:39;;;;;;;5.43;3.30;;;256.80;1126.40;;;;;;4852227;29;20033;-63
2022/04/17 07:27:05;;;;;;;4.97;3.30;;;281.60;1152.00;;;;;;4837397;29;20409;-62
2022/04/17 07:29:30;;;;;;;15.52;3.55;;;281.60;1126.40;;;;;;4861527;29;20026;-62
2022/04/17 07:31:56;;;;;;;19.30;4.18;;;281.80;1126.40;;;;;;4861545;29;20049;-62
2022/04/17 07:34:22;;;;;;;5.63;3.30;;;281.70;1126.40;;;;;;4861656;29;20037;-62
2022/04/17 07:36:52;;;;;;;5.40;3.25;;;282.00;1126.40;;;;;;4861714;29;20469;-62
2022/04/17 07:39:18;;;;;;;6.95;2.92;;;282.10;1126.40;;;;;;4861685;29;20029;-62
2022/04/17 07:41:46;;;;;;;6.45;2.60;;;282.20;1075.20;;;;;;4858053;29;20025;-63
2022/04/17 07:44:13;;;;;;;14.98;2.95;;;282.30;1100.80;;;;;;4851256;29;20488;-63
2022/04/17 07:46:42;;;;;;;4.45;2.72;;;307.20;1126.40;;;;;;4854516;29;20029;-62
2022/04/17 07:49:08;;;;;;;24.92;4.85;;;307.30;1100.80;;;;;;4851246;29;20036;-67
2022/04/17 07:51:35;;;;;;;47.83;16.92;;;307.40;1075.20;;;;;;4835033;29;20434;-63
2022/04/17 07:54:01;;;;;;;67.78;35.85;;;307.40;1075.20;;;;;;4833247;29;20049;-62
2022/04/17 07:56:27;;;;;;;35.55;23.02;;;307.60;1100.80;;;;;;4850395;29;20029;-63
2022/04/17 07:58:53;;;;;;;15.07;4.45;;;307.70;1049.60;;;;;;4850520;29;20053;-63
2022/04/17 08:01:18;;;;;;;10.77;3.80;;;307.70;1049.60;;;;;;4851627;29;20112;-63
2022/04/17 08:06:10;;;;;;;15.10;4.25;;;308.00;1049.60;;;;;;4843180;29;20034;-69
2022/04/17 08:08:39;;;;;;;15.38;4.85;;;332.80;1152.00;;;;;;4849607;29;20120;-64
2022/04/17 08:11:05;;;;;;;10.52;4.10;;;308.10;1049.60;;;;;;4849276;29;20093;-62
2022/04/17 08:13:32;;;;;;;31.65;4.78;;;332.90;1024.00;;;;;;4850546;29;20381;-62
2022/04/17 08:15:59;;;;;;;13.60;7.10;;;332.80;998.40;;;;;;4849376;29;20062;-62
2022/04/17 08:18:25;;;;;;;14.57;7.03;;;332.90;1024.00;;;;;;4851181;29;20018;-61
2022/04/17 08:20:50;;;;;;;25.77;16.90;;;332.80;1024.00;;;;;;4846271;29;20037;-62
2022/04/17 08:23:17;;;;;;;6.07;3.45;;;333.00;1024.00;;;;;;4841578;29;20113;-63
2022/04/17 08:25:43;;;;;;;12.75;4.10;;;333.00;1024.00;;;;;;4841633;29;20042;-62
2022/04/17 08:28:08;;;;;;;7.32;3.58;;;333.00;998.40;;;;;;4841270;29;20062;-63
2022/04/17 08:30:35;;;;;;;7.15;3.17;;;333.10;998.40;;;;;;4841257;29;20046;-62
2022/04/17 08:33:03;;;;;;;7.25;4.07;;;333.10;972.80;;;;;;4841212;29;20026;-62
2022/04/17 08:35:29;;;;;;;7.72;2.78;;;333.30;998.40;;;;;;4841172;29;20033;-63
2022/04/17 08:37:59;;;;;;;6.30;3.10;;;333.40;972.80;;;;;;4841401;29;20495;-63
2022/04/17 08:40:26;;;;;;;10.00;2.72;;;333.40;947.20;;;;;;4841104;29;20037;-64
2022/04/17 08:42:52;;;;;;;5.57;3.50;;;333.50;896.00;;;;;;4825049;29;20026;-63
2022/04/17 08:45:19;;;;;;;9.45;4.68;;;333.50;921.60;;;;;;4841120;29;20034;-63
2022/04/17 08:47:45;;;;;;;7.45;4.10;;;333.60;947.20;;;;;;4840648;29;20196;-63
2022/04/17 08:50:15;;;;;;;15.02;4.85;;;333.70;921.60;;;;;;4824219;29;20034;-63
2022/04/17 08:52:47;;;;;;;10.35;4.80;;;333.70;921.60;;;;;;4846403;29;20022;-64
2022/04/17 08:55:14;;;;;;;5.35;3.25;;;358.40;947.20;;;;;;4843977;29;20045;-63
2022/04/17 08:57:40;;;;;;;7.65;3.50;;;333.70;921.60;;;;;;4846261;29;20034;-63
2022/04/17 09:00:10;;;;;;;10.52;3.78;;;333.70;947.20;;;;;;4834445;29;20042;-64
2022/04/17 09:02:36;;;;;;;7.07;4.78;;;358.50;947.20;;;;;;4849453;29;20026;-63
2022/04/17 09:05:10;;;;;;;15.98;3.05;;;358.50;921.60;;;;;;4844352;29;20058;-63
2022/04/17 09:07:45;;;;;;;7.22;3.90;;;358.50;921.60;;;;;;4843152;29;20052;-63
2022/04/17 09:10:32;;;;;;;9.35;3.33;;;358.60;896.00;;;;;;4842315;29;20389;-63
2022/04/17 09:13:03;;;;;;;7.30;3.45;;;358.50;921.60;;;;;;4843163;29;20033;-62
2022/04/17 09:15:33;;;;;;;8.00;4.60;;;358.50;896.00;;;;;;4842075;29;20044;-62
2022/04/17 09:17:59;;;;;;;10.82;4.60;;;358.60;921.60;;;;;;4844000;29;20049;-63
2022/04/17 09:20:26;;;;;;;7.35;4.90;;;358.40;870.40;;;;;;4844093;29;20030;-63
2022/04/17 09:22:55;;;;;;;10.77;4.20;;;358.40;896.00;;;;;;4849227;29;20022;-63
2022/04/17 09:25:28;;;;;;;9.90;4.38;;;358.40;896.00;;;;;;4853423;29;20045;-62
2022/04/17 09:28:07;;;;;;;5.53;3.15;;;358.50;896.00;;;;;;4847040;29;20524;-63
2022/04/17 09:30:34;;;;;;;4.50;3.13;;;358.60;921.60;;;;;;4841322;29;20053;-63
2022/04/17 09:33:04;;;;;;;27.55;4.72;;;358.80;921.60;;;;;;4834162;29;20026;-62
2022/04/17 09:35:30;;;;;;;8.10;3.20;;;358.70;844.80;;;;;;4834319;29;20058;-63
2022/04/17 09:38:02;;;;;;;9.63;3.90;;;358.60;870.40;;;;;;4835625;29;20117;-63
2022/04/17 09:40:31;;;;;;;11.35;4.65;;;358.60;844.80;;;;;;4834946;29;20066;-62
2022/04/17 09:43:17;;;;;;;11.13;5.05;;;358.70;870.40;;;;;;4833551;29;20041;-63
2022/04/17 09:45:59;;;;;;;14.90;5.85;;;358.80;870.40;;;;;;4829080;29;20037;-63
2022/04/17 09:48:30;;;;;;;7.32;3.13;;;358.90;896.00;;;;;;4831359;29;20498;-63
2022/04/17 09:50:56;;;;;;;9.02;3.47;;;358.80;870.40;;;;;;4835432;29;20034;-62
2022/04/17 09:53:33;;;;;;;7.13;3.20;;;358.90;870.40;;;;;;4836678;29;20117;-63
2022/04/17 09:56:11;;;;;;;6.20;3.03;;;359.00;870.40;;;;;;4836158;29;20083;-63
2022/04/17 09:58:42;;;;;;;6.65;3.33;;;358.90;870.40;;;;;;4834331;29;20030;-63
2022/04/17 10:01:08;;;;;;;7.18;4.05;;;358.90;844.80;;;;;;4826480;29;20030;-62
2022/04/17 10:03:39;;;;;;;7.72;4.18;;;359.00;870.40;;;;;;4825912;29;20035;-64
2022/04/17 10:06:06;;;;;;;6.93;4.35;;;359.10;870.40;;;;;;4826308;29;20091;-63
2022/04/17 10:08:33;;;;;;;11.27;5.80;;;359.10;896.00;;;;;;4826349;29;20482;-63
2022/04/17 10:11:00;;;;;;;6.95;3.63;;;359.20;896.00;;;;;;4826680;29;20493;-63
2022/04/17 10:13:27;;;;;;;11.68;4.70;;;384.00;870.40;;;;;;4826402;29;20117;-63
2022/04/17 10:15:58;;;;;;;5.95;3.97;;;384.10;870.40;;;;;;4826170;29;20035;-63
2022/04/17 10:18:27;;;;;;;8.88;3.13;;;384.20;844.80;;;;;;4826209;29;20026;-63
2022/04/17 10:20:55;;;;;;;6.35;3.20;;;384.40;870.40;;;;;;4824916;29;20172;-63
2022/04/17 10:23:25;;;;;;;9.32;4.18;;;384.40;844.80;;;;;;4825866;29;20034;-63
2022/04/17 10:25:53;;;;;;;8.43;3.65;;;384.50;844.80;;;;;;4824657;29;20114;-63
2022/04/17 10:28:21;;;;;;;6.88;3.40;;;384.50;844.80;;;;;;4825042;29;20034;-63
2022/04/17 10:31:21;;;;;;;4.50;3.45;;;384.50;844.80;;;;;;4832651;29;20057;-63
2022/04/17 10:34:39;;;;;;;6.88;2.90;;;384.70;819.20;;;;;;4843852;29;20053;-63
2022/04/17 10:37:41;;;;;;;3.13;2.17;;;384.60;819.20;;;;;;4787802;30;20506;-63
2022/04/17 10:40:10;;;;;;;5.10;2.65;;;384.70;819.20;;;;;;4787613;29;20039;-63
2022/04/17 10:42:57;;;;;;;3.90;2.58;;;384.90;844.80;;;;;;4788343;30;20407;-63
2022/04/17 10:45:23;;;;;;;3.33;2.45;;;409.60;844.80;;;;;;4787499;29;20487;-63
2022/04/17 10:48:02;;;;;;;6.10;2.38;;;384.50;768.00;;;;;;4787470;30;20039;-63
2022/04/17 10:50:30;;;;;;;5.10;2.92;;;384.60;793.60;;;;;;4787686;30;20115;-63
2022/04/17 10:52:56;;;;;;;6.80;3.80;;;384.80;819.20;;;;;;4787089;30;20085;-63
2022/04/17 10:55:22;;;;;;;20.92;9.65;;;409.60;844.80;;;;;;4787627;30;20471;-63
2022/04/17 10:57:49;;;;;;;9.38;3.80;;;409.60;819.20;;;;;;4787562;30;20474;-63
2022/04/17 11:00:28;;;;;;;12.77;7.57;;;409.60;793.60;;;;;;4786964;30;20118;-63
2022/04/17 11:02:58;;;;;;;32.50;14.02;;;409.70;768.00;;;;;;4787494;30;20028;-63
2022/04/17 11:08:26;;;;;;;10.52;2.78;;;409.70;793.60;;;;;;4787401;30;20092;-63
2022/04/17 11:10:54;;;;;;;5.13;2.13;;;409.60;793.60;;;;;;4787096;30;20055;-63
2022/04/17 11:13:23;;;;;;;5.35;2.30;;;409.60;768.00;;;;;;4837886;29;20050;-63
2022/04/17 11:15:55;;;;;;;6.28;3.50;;;409.60;768.00;;;;;;4850021;29;20081;-62
2022/04/17 11:18:26;;;;;;;10.98;5.45;;;409.70;768.00;;;;;;4852323;29;20486;-63
2022/04/17 11:20:53;;;;;;;4.97;2.92;;;384.90;742.40;;;;;;4848916;29;20022;-63
2022/04/17 11:23:47;;;;;;;9.77;3.33;;;409.70;768.00;;;;;;4830104;29;20113;-62
2022/04/17 11:26:13;;;;;;;21.23;10.48;;;409.60;768.00;;;;;;4843476;29;20442;-64
2022/04/17 11:28:39;;;;;;;18.90;10.38;;;409.60;793.60;;;;;;4842804;29;20050;-64
2022/04/17 11:31:05;;;;;;;10.68;5.75;;;409.60;793.60;;;;;;4843066;29;20144;-61
2022/04/17 11:33:31;;;;;;;6.00;3.53;;;409.70;768.00;;;;;;4844676;29;20076;-61
2022/04/17 11:35:58;;;;;;;12.63;5.05;;;409.60;793.60;;;;;;4854569;29;20034;-62
2022/04/17 11:38:24;;;;;;;5.97;4.10;;;409.60;793.60;;;;;;4861974;29;20029;-61
2022/04/17 11:40:50;;;;;;;31.73;13.13;;;409.70;819.20;;;;;;4856044;29;20036;-62
2022/04/17 11:43:17;;;;;;;23.65;13.48;;;384.90;768.00;;;;;;4851060;29;20057;-61
2022/04/17 11:45:51;;;;;;;7.82;3.03;;;409.60;819.20;;;;;;4831087;29;20041;-62
2022/04/17 11:48:18;;;;;;;23.33;8.70;;;409.60;819.20;;;;;;4851663;29;20033;-62
2022/04/17 11:50:51;;;;;;;6.00;3.13;;;409.70;819.20;;;;;;4850203;29;20086;-61
2022/04/17 11:53:18;;;;;;;11.07;5.75;;;409.80;793.60;;;;;;4851850;29;20495;-63
2022/04/17 11:55:46;;;;;;;5.28;2.90;;;409.70;793.60;;;;;;4848154;29;20064;-62
2022/04/17 11:58:20;;;;;;;21.48;11.05;;;409.80;819.20;;;;;;4845322;29;20033;-61
2022/04/17 12:00:54;;;;;;;6.47;2.30;;;409.90;793.60;;;;;;4848279;29;20056;-62
2022/04/17 12:03:20;;;;;;;11.35;5.68;;;409.70;768.00;;;;;;4850824;29;20489;-61
2022/04/17 12:05:46;;;;;;;18.80;10.40;;;409.70;793.60;;;;;;4851630;29;20040;-61
2022/04/17 12:08:13;;;;;;;13.38;5.93;;;409.80;793.60;;;;;;4835615;29;20068;-61
2022/04/17 12:10:43;;;;;;;21.73;7.57;;;410.00;793.60;;;;;;4848374;29;20548;-63
2022/04/17 12:13:18;;;;;;;12.10;5.15;;;410.00;793.60;;;;;;4851127;29;20037;-62
2022/04/17 12:15:46;;;;;;;10.32;4.13;;;410.00;793.60;;;;;;4849966;29;20037;-62
2022/04/17 12:18:17;;;;;;;5.13;2.70;;;410.00;819.20;;;;;;4850710;29;20022;-62
2022/04/17 12:20:43;;;;;;;7.05;2.47;;;409.80;793.60;;;;;;4849600;29;20354;-61
2022/04/17 12:23:09;;;;;;;7.10;2.38;;;409.90;793.60;;;;;;4851243;29;20153;-61
2022/04/17 12:25:36;;;;;;;5.82;1.67;;;410.00;793.60;;;;;;4850792;29;20084;-61
2022/04/17 12:28:02;;;;;;;8.38;2.95;;;409.90;793.60;;;;;;4850884;29;20030;-61
2022/04/17 12:30:29;;;;;;;9.65;3.53;;;409.90;793.60;;;;;;4845789;29;20105;-61
2022/04/17 12:32:59;;;;;;;6.30;2.80;;;410.00;793.60;;;;;;4846241;29;20051;-62
2022/04/17 12:35:27;;;;;;;5.18;1.70;;;410.10;793.60;;;;;;4846203;29;20473;-62
2022/04/17 12:38:07;;;;;;;6.35;2.33;;;410.10;742.40;;;;;;4846279;29;20112;-62